Time;durP1;ratioP1;P1;durP2;ratioP2;P2;SDS_P1;SDS_P2;PMS_P1;PMS_P2;Temp;Humidity;BMP_temperature;BMP_pressure;BME280_temperature;BME280_humidity;BME280_pressure;Samples;Min_cycle;Max_cycle;Signal;HPM_P1;HPM_P2
2023/09/19 00:01:25;;;;;;;0.10;0.10;;;16.60;99.90;;;;;;5008349;28;20026;-84
2023/09/19 00:03:53;;;;;;;0.20;0.20;;;16.60;99.90;;;;;;5003213;28;20026;-84
2023/09/19 00:06:20;;;;;;;0.30;0.30;;;16.60;99.90;;;;;;5015196;28;20045;-83
2023/09/19 00:08:47;;;;;;;0.52;0.20;;;16.60;99.90;;;;;;5005563;28;20031;-83
2023/09/19 00:11:14;;;;;;;0.10;0.10;;;16.50;99.90;;;;;;5005329;28;20046;-83
2023/09/19 00:13:40;;;;;;;0.00;0.00;;;16.50;99.90;;;;;;5011831;28;20052;-83
2023/09/19 00:16:10;;;;;;;0.20;0.20;;;16.50;99.90;;;;;;5010030;28;20078;-84
2023/09/19 00:18:38;;;;;;;0.00;0.00;;;16.50;1.00;;;;;;5004232;28;20038;-86
2023/09/19 00:21:07;;;;;;;0.35;0.35;;;16.40;1.00;;;;;;5003836;28;20030;-84
2023/09/19 00:23:34;;;;;;;0.13;0.13;;;16.40;1.00;;;;;;5008659;28;20033;-86
2023/09/19 00:26:00;;;;;;;0.10;0.10;;;16.40;1.00;;;;;;5007511;28;20030;-83
2023/09/19 00:28:31;;;;;;;0.10;0.10;;;16.40;1.00;;;;;;4997989;28;20034;-83
2023/09/19 00:31:01;;;;;;;0.73;0.35;;;16.40;1.00;;;;;;5011061;28;20472;-82
2023/09/19 00:33:31;;;;;;;0.10;0.10;;;16.40;1.00;;;;;;5007968;28;20034;-83
2023/09/19 00:35:57;;;;;;;0.83;0.83;;;16.40;1.00;;;;;;5011577;28;20046;-83
2023/09/19 00:38:26;;;;;;;0.22;0.22;;;16.30;1.00;;;;;;4999214;28;20038;-83
2023/09/19 00:40:54;;;;;;;1.08;0.75;;;16.30;1.00;;;;;;5011321;28;20034;-82
2023/09/19 00:43:23;;;;;;;0.10;0.10;;;16.30;1.00;;;;;;5010522;28;20476;-84
2023/09/19 00:45:53;;;;;;;0.15;0.13;;;16.30;1.00;;;;;;4995969;28;20375;-84
2023/09/19 00:48:20;;;;;;;1.45;0.50;;;16.30;1.00;;;;;;5014401;28;20038;-84
2023/09/19 00:50:48;;;;;;;0.17;0.17;;;16.30;1.00;;;;;;5013609;28;20382;-84
2023/09/19 00:53:22;;;;;;;0.00;0.00;;;16.30;1.00;;;;;;5008724;28;20042;-84
2023/09/19 00:55:50;;;;;;;0.20;0.20;;;16.30;1.00;;;;;;5018670;28;20050;-83
2023/09/19 00:58:18;;;;;;;0.10;0.10;;;16.30;1.00;;;;;;5000800;28;20038;-83
2023/09/19 01:00:46;;;;;;;0.10;0.10;;;16.30;1.00;;;;;;5012900;28;20391;-83
2023/09/19 01:03:13;;;;;;;0.85;0.40;;;16.30;1.00;;;;;;5010700;28;20035;-83
2023/09/19 01:05:40;;;;;;;0.10;0.10;;;16.30;1.00;;;;;;5022899;28;20028;-88
2023/09/19 01:08:07;;;;;;;0.00;0.00;;;16.30;1.00;;;;;;5027754;28;20034;-83
2023/09/19 01:10:33;;;;;;;0.00;0.00;;;16.30;1.00;;;;;;5024026;28;20361;-82
2023/09/19 01:13:40;;;;;;;0.10;0.10;;;16.30;1.00;;;;;;4995896;28;20583;-84
2023/09/19 01:16:16;;;;;;;0.10;0.10;;;16.30;1.00;;;;;;5005281;28;20038;-83
2023/09/19 01:19:17;;;;;;;0.10;0.10;;;16.30;1.00;;;;;;4999367;28;20047;-84
2023/09/19 01:22:12;;;;;;;0.17;0.17;;;16.30;1.00;;;;;;4957412;28;20043;-84
2023/09/19 01:25:03;;;;;;;0.03;0.03;;;16.30;1.00;;;;;;4994494;28;20034;-89
2023/09/19 01:27:32;;;;;;;0.10;0.10;;;16.30;1.00;;;;;;5006935;28;20041;-83
2023/09/19 01:30:11;;;;;;;0.10;0.10;;;16.30;1.00;;;;;;4992937;28;20042;-83
2023/09/19 01:32:39;;;;;;;0.28;0.28;;;16.40;1.00;;;;;;5000862;28;20034;-84
2023/09/19 01:35:05;;;;;;;1.00;0.30;;;16.40;1.00;;;;;;5004482;28;20034;-85
2023/09/19 01:37:31;;;;;;;0.10;0.10;;;16.50;1.00;;;;;;5005930;28;20033;-85
2023/09/19 01:40:16;;;;;;;0.13;0.13;;;16.50;99.90;;;;;;4998427;28;20739;-83
2023/09/19 01:43:07;;;;;;;0.30;0.10;;;16.60;99.90;;;;;;5009075;28;20038;-86
2023/09/19 01:45:48;;;;;;;;;;;16.60;99.90;;;;;;5004314;28;20353;-83
2023/09/19 01:48:40;;;;;;;0.32;0.22;;;16.60;1.00;;;;;;5003321;28;19905;-83
2023/09/19 01:51:10;;;;;;;0.75;0.43;;;16.60;1.00;;;;;;5000018;28;20043;-83
2023/09/19 01:54:03;;;;;;;0.35;0.35;;;16.60;1.00;;;;;;5002785;28;20035;-83
2023/09/19 01:56:36;;;;;;;0.10;0.10;;;16.60;1.00;;;;;;5016564;28;20050;-83
2023/09/19 01:59:11;;;;;;;1.98;0.68;;;16.60;1.00;;;;;;4999862;28;20781;-84
2023/09/19 02:01:39;;;;;;;0.30;0.30;;;16.60;1.00;;;;;;5000617;28;20057;-83
2023/09/19 02:04:05;;;;;;;0.77;0.45;;;16.60;1.00;;;;;;5002990;28;20037;-84
2023/09/19 02:06:33;;;;;;;0.90;0.90;;;16.60;1.00;;;;;;5009466;28;20045;-83
2023/09/19 02:09:00;;;;;;;0.60;0.50;;;16.60;1.00;;;;;;4997755;28;20030;-85
2023/09/19 02:11:26;;;;;;;0.08;0.08;;;16.60;1.00;;;;;;5001582;28;20030;-83
2023/09/19 02:13:54;;;;;;;0.65;0.63;;;16.60;1.00;;;;;;4988695;28;20045;-84
2023/09/19 02:16:20;;;;;;;1.50;0.57;;;16.60;1.00;;;;;;5001011;28;20384;-83
2023/09/19 02:18:49;;;;;;;0.60;0.32;;;16.60;1.00;;;;;;4997521;28;20030;-84
2023/09/19 02:21:17;;;;;;;0.10;0.10;;;16.70;1.00;;;;;;5003759;28;20026;-84
2023/09/19 02:23:44;;;;;;;9.95;0.47;;;16.70;1.00;;;;;;5003551;28;20460;-86
2023/09/19 02:26:12;;;;;;;0.98;0.30;;;16.70;1.00;;;;;;5009390;28;20050;-84
2023/09/19 02:28:38;;;;;;;0.05;0.03;;;16.70;1.00;;;;;;5005388;28;20040;-84
2023/09/19 02:31:07;;;;;;;0.25;0.25;;;16.60;1.00;;;;;;5010639;28;20064;-83
2023/09/19 02:33:33;;;;;;;0.55;0.40;;;16.70;1.00;;;;;;4993533;28;20030;-85
2023/09/19 02:36:00;;;;;;;0.47;0.47;;;16.70;1.00;;;;;;5011267;28;20053;-84
2023/09/19 02:38:28;;;;;;;0.10;0.10;;;16.60;1.00;;;;;;4998710;28;20029;-83
2023/09/19 02:40:55;;;;;;;0.35;0.32;;;16.60;1.00;;;;;;5001590;28;20049;-82
2023/09/19 02:43:22;;;;;;;0.30;0.30;;;16.60;1.00;;;;;;4993852;28;20041;-84
2023/09/19 02:45:54;;;;;;;0.30;0.30;;;16.50;1.00;;;;;;5002863;28;20034;-83
2023/09/19 02:48:21;;;;;;;2.28;0.73;;;16.50;1.00;;;;;;5007258;28;20022;-83
2023/09/19 02:50:51;;;;;;;0.38;0.10;;;16.50;1.00;;;;;;5008273;28;20041;-84
2023/09/19 02:53:17;;;;;;;0.65;0.47;;;16.40;1.00;;;;;;5008349;28;20030;-82
2023/09/19 02:55:43;;;;;;;0.15;0.15;;;16.40;1.00;;;;;;4995249;28;20039;-83
2023/09/19 02:58:11;;;;;;;0.10;0.10;;;16.30;1.00;;;;;;4997756;28;20042;-83
2023/09/19 03:00:38;;;;;;;0.00;0.00;;;16.30;1.00;;;;;;4998480;28;20041;-83
2023/09/19 03:03:06;;;;;;;0.15;0.10;;;16.20;1.00;;;;;;5014609;28;20034;-83
2023/09/19 03:05:33;;;;;;;0.80;0.52;;;16.20;1.00;;;;;;5002149;28;20045;-83
2023/09/19 03:08:03;;;;;;;0.22;0.22;;;16.20;1.00;;;;;;5006171;28;20360;-83
2023/09/19 03:10:30;;;;;;;0.32;0.30;;;16.20;1.00;;;;;;4989844;28;20042;-83
2023/09/19 03:13:00;;;;;;;1.75;0.57;;;16.10;1.00;;;;;;4993063;28;20037;-83
2023/09/19 03:15:26;;;;;;;0.55;0.38;;;16.10;1.00;;;;;;5008823;28;20385;-83
2023/09/19 03:17:53;;;;;;;0.20;0.20;;;16.10;1.00;;;;;;5008923;28;20368;-83
2023/09/19 03:20:22;;;;;;;0.38;0.35;;;16.10;1.00;;;;;;4993691;28;20026;-83
2023/09/19 03:22:49;;;;;;;0.10;0.10;;;16.10;1.00;;;;;;5010408;28;20049;-87
2023/09/19 03:25:17;;;;;;;0.10;0.10;;;16.00;1.00;;;;;;5008534;28;20049;-82
2023/09/19 03:27:45;;;;;;;0.63;0.45;;;15.90;1.00;;;;;;5008431;28;20042;-86
2023/09/19 03:30:13;;;;;;;0.98;0.45;;;15.90;1.00;;;;;;5015002;28;20042;-81
2023/09/19 03:32:45;;;;;;;0.93;0.52;;;15.80;1.00;;;;;;5007597;28;20267;-82
2023/09/19 03:35:13;;;;;;;0.10;0.10;;;15.80;1.00;;;;;;5011038;28;20041;-82
2023/09/19 03:37:41;;;;;;;0.20;0.20;;;15.80;1.00;;;;;;5016598;28;20764;-82
2023/09/19 03:40:12;;;;;;;0.52;0.40;;;15.70;1.00;;;;;;4998493;28;20057;-82
2023/09/19 03:42:41;;;;;;;0.13;0.13;;;15.70;1.00;;;;;;4996922;28;20030;-82
2023/09/19 03:45:13;;;;;;;1.10;1.00;;;15.70;1.00;;;;;;4992228;28;20038;-82
2023/09/19 03:47:42;;;;;;;0.30;0.30;;;15.70;1.00;;;;;;5022732;28;20038;-82
2023/09/19 03:50:17;;;;;;;0.10;0.10;;;15.60;1.00;;;;;;4994452;28;20462;-82
2023/09/19 03:52:46;;;;;;;0.63;0.52;;;15.70;1.00;;;;;;5004821;28;20036;-83
2023/09/19 03:55:12;;;;;;;0.75;0.57;;;15.80;1.00;;;;;;5011086;28;20049;-83
2023/09/19 03:57:39;;;;;;;0.10;0.10;;;15.80;1.00;;;;;;5010370;28;20065;-83
2023/09/19 04:00:11;;;;;;;0.10;0.10;;;15.90;1.00;;;;;;5003134;28;20053;-82
2023/09/19 04:02:39;;;;;;;0.77;0.73;;;15.80;99.90;;;;;;5012100;28;20395;-81
2023/09/19 04:05:06;;;;;;;0.45;0.45;;;15.80;99.90;;;;;;5001878;28;20042;-81
2023/09/19 04:07:34;;;;;;;0.30;0.20;;;16.00;99.90;;;;;;5002564;28;20041;-81
2023/09/19 04:10:00;;;;;;;0.82;0.65;;;16.10;99.90;;;;;;5002119;28;20038;-83
2023/09/19 04:12:27;;;;;;;0.95;0.73;;;16.10;99.90;;;;;;5003066;28;20034;-83
2023/09/19 04:14:54;;;;;;;1.80;1.13;;;16.10;96.30;;;;;;5004632;28;20381;-81
2023/09/19 04:17:20;;;;;;;0.28;0.28;;;16.20;51.10;;;;;;5001979;28;20102;-83
2023/09/19 04:19:46;;;;;;;1.17;0.35;;;16.10;68.80;;;;;;5008100;28;20045;-82
2023/09/19 04:22:13;;;;;;;0.28;0.25;;;16.00;61.30;;;;;;5009110;28;20049;-83
2023/09/19 04:24:39;;;;;;;0.98;0.70;;;15.90;84.70;;;;;;5019606;28;20043;-82
2023/09/19 04:27:07;;;;;;;0.77;0.47;;;15.90;41.90;;;;;;5000789;28;20550;-81
2023/09/19 04:29:33;;;;;;;0.30;0.30;;;15.90;26.00;;;;;;4999699;28;20034;-80
2023/09/19 04:31:59;;;;;;;0.20;0.20;;;15.90;7.70;;;;;;5005462;28;20023;-81
2023/09/19 04:34:25;;;;;;;0.30;0.30;;;15.90;1.00;;;;;;4999253;28;20034;-82
2023/09/19 04:36:52;;;;;;;0.43;0.40;;;15.90;1.00;;;;;;5002823;28;20034;-86
2023/09/19 04:39:18;;;;;;;0.30;0.30;;;16.00;1.00;;;;;;5012086;28;20034;-83
2023/09/19 04:41:45;;;;;;;1.25;0.63;;;16.00;1.00;;;;;;5000961;28;20045;-84
2023/09/19 04:44:13;;;;;;;0.15;0.15;;;15.90;1.00;;;;;;4994719;28;20053;-84
2023/09/19 04:46:39;;;;;;;0.52;0.45;;;15.90;1.00;;;;;;5000084;28;20065;-84
2023/09/19 04:49:05;;;;;;;0.32;0.32;;;15.90;1.00;;;;;;4999959;28;20478;-84
2023/09/19 04:51:34;;;;;;;0.20;0.20;;;15.80;1.00;;;;;;4997403;28;20034;-84
2023/09/19 04:54:00;;;;;;;0.70;0.52;;;15.80;1.00;;;;;;4999390;28;20018;-84
2023/09/19 04:56:28;;;;;;;0.30;0.30;;;15.80;1.00;;;;;;5003614;28;20057;-82
2023/09/19 04:58:54;;;;;;;0.13;0.10;;;15.70;1.00;;;;;;4994598;28;20383;-84
2023/09/19 05:01:21;;;;;;;0.73;0.73;;;15.70;1.00;;;;;;5012839;28;20033;-83
2023/09/19 05:03:52;;;;;;;0.30;0.30;;;15.60;1.00;;;;;;5014819;28;20045;-82
2023/09/19 05:06:22;;;;;;;0.28;0.28;;;15.60;1.00;;;;;;5013053;28;20034;-82
2023/09/19 05:08:52;;;;;;;2.05;1.00;;;15.60;1.00;;;;;;4995959;28;20022;-81
2023/09/19 05:11:22;;;;;;;0.38;0.38;;;15.50;1.80;;;;;;4995542;28;20065;-82
2023/09/19 05:13:50;;;;;;;1.95;1.10;;;15.50;1.00;;;;;;5010472;28;20041;-82
2023/09/19 05:16:17;;;;;;;0.40;0.40;;;15.50;7.40;;;;;;4997323;28;20052;-82
2023/09/19 05:18:43;;;;;;;0.30;0.30;;;15.50;1.70;;;;;;4999042;28;20451;-82
2023/09/19 05:21:09;;;;;;;0.28;0.28;;;15.60;4.30;;;;;;5009784;28;20061;-81
2023/09/19 05:23:36;;;;;;;0.40;0.40;;;15.70;1.00;;;;;;4996175;28;20030;-81
2023/09/19 05:26:03;;;;;;;0.40;0.40;;;15.70;1.00;;;;;;5000583;28;20456;-81
2023/09/19 05:28:30;;;;;;;0.68;0.30;;;15.80;1.00;;;;;;5004446;28;20074;-81
2023/09/19 05:30:56;;;;;;;0.68;0.63;;;15.80;1.00;;;;;;4995062;28;20039;-83
2023/09/19 05:33:22;;;;;;;1.00;0.40;;;15.90;1.00;;;;;;5007525;28;20030;-81
2023/09/19 05:35:48;;;;;;;0.20;0.20;;;16.00;1.00;;;;;;4982026;28;20157;-84
2023/09/19 05:38:15;;;;;;;0.10;0.10;;;16.10;1.00;;;;;;4997485;28;20380;-83
2023/09/19 05:40:42;;;;;;;0.28;0.28;;;16.10;1.00;;;;;;5009866;28;20035;-82
2023/09/19 05:43:09;;;;;;;0.15;0.15;;;16.10;1.00;;;;;;4993824;28;20041;-82
2023/09/19 05:45:36;;;;;;;1.75;1.42;;;16.20;1.00;;;;;;4994690;28;20031;-84
2023/09/19 05:48:14;;;;;;;0.28;0.20;;;16.20;1.00;;;;;;5008396;28;20033;-84
2023/09/19 05:50:41;;;;;;;0.10;0.10;;;16.20;1.00;;;;;;5006243;28;20022;-86
2023/09/19 05:53:08;;;;;;;0.20;0.20;;;16.20;1.00;;;;;;5003067;28;20045;-87
2023/09/19 05:55:35;;;;;;;0.75;0.43;;;16.20;1.00;;;;;;5007229;28;20041;-85
2023/09/19 05:58:03;;;;;;;0.30;0.30;;;16.30;1.00;;;;;;5014115;28;20491;-87
2023/09/19 06:00:32;;;;;;;1.25;0.55;;;16.30;1.00;;;;;;5023083;28;20302;-85
2023/09/19 06:02:59;;;;;;;0.20;0.20;;;16.30;1.00;;;;;;5003466;28;20056;-87
2023/09/19 06:05:26;;;;;;;0.80;0.45;;;16.40;1.00;;;;;;5021423;28;20033;-86
2023/09/19 06:07:53;;;;;;;0.57;0.57;;;16.40;1.00;;;;;;5012239;28;20042;-84
2023/09/19 06:10:23;;;;;;;2.58;0.40;;;16.50;1.00;;;;;;5001649;28;20041;-84
2023/09/19 06:12:49;;;;;;;0.35;0.32;;;16.50;1.00;;;;;;4998359;28;20026;-82
2023/09/19 06:15:18;;;;;;;0.10;0.10;;;16.60;1.00;;;;;;4995961;28;20030;-83
2023/09/19 06:17:49;;;;;;;0.20;0.20;;;16.60;1.00;;;;;;5009926;28;20038;-85
2023/09/19 06:20:16;;;;;;;;;;;16.70;1.00;;;;;;4999947;28;20034;-78
2023/09/19 06:22:44;;;;;;;0.15;0.15;;;16.70;1.00;;;;;;4996355;28;20247;-84
2023/09/19 06:25:11;;;;;;;0.35;0.22;;;16.80;1.00;;;;;;5000055;28;20483;-84
2023/09/19 06:27:42;;;;;;;0.10;0.10;;;16.90;1.00;;;;;;4997071;28;20037;-82
2023/09/19 06:30:09;;;;;;;0.10;0.10;;;17.00;99.90;;;;;;4991375;28;20042;-85
2023/09/19 06:32:35;;;;;;;0.47;0.20;;;17.10;99.90;;;;;;5000006;28;20391;-84
2023/09/19 06:35:02;;;;;;;0.10;0.10;;;17.00;99.90;;;;;;5010423;28;20446;-85
2023/09/19 06:37:29;;;;;;;7.22;1.45;;;17.00;99.90;;;;;;5010255;28;20038;-85
2023/09/19 06:39:56;;;;;;;0.10;0.10;;;17.10;99.90;;;;;;5009733;28;20034;-89
2023/09/19 06:42:23;;;;;;;0.30;0.30;;;17.10;99.90;;;;;;5002588;28;20041;-86
2023/09/19 06:44:50;;;;;;;0.43;0.43;;;17.20;99.90;;;;;;4979497;28;20387;-83
2023/09/19 06:47:16;;;;;;;0.10;0.10;;;17.20;99.90;;;;;;4994492;28;20626;-84
2023/09/19 06:49:45;;;;;;;1.13;0.22;;;17.20;99.90;;;;;;4997660;28;20049;-84
2023/09/19 06:52:11;;;;;;;0.65;0.28;;;17.20;99.90;;;;;;5003641;28;20030;-85
2023/09/19 06:54:37;;;;;;;4.57;1.17;;;17.20;99.90;;;;;;5002347;28;20038;-84
2023/09/19 06:57:03;;;;;;;0.20;0.20;;;17.10;99.90;;;;;;5001310;28;20030;-85
2023/09/19 06:59:32;;;;;;;0.35;0.30;;;17.10;99.90;;;;;;4999003;28;20344;-83
2023/09/19 07:01:59;;;;;;;0.10;0.10;;;17.10;99.90;;;;;;4993779;28;20041;-85
2023/09/19 07:04:25;;;;;;;0.20;0.20;;;17.20;99.90;;;;;;5001572;28;20130;-82
2023/09/19 07:06:51;;;;;;;0.20;0.20;;;17.20;99.90;;;;;;5007370;28;20037;-84
2023/09/19 07:09:19;;;;;;;0.15;0.15;;;17.20;99.90;;;;;;5000674;28;20057;-80
2023/09/19 07:11:47;;;;;;;0.10;0.10;;;17.30;99.90;;;;;;5005575;28;20049;-83
2023/09/19 07:14:13;;;;;;;0.10;0.10;;;17.40;99.90;;;;;;5002739;28;20132;-84
2023/09/19 07:16:42;;;;;;;0.10;0.10;;;17.50;99.90;;;;;;4998154;28;20367;-81
2023/09/19 07:19:08;;;;;;;0.28;0.28;;;17.70;99.90;;;;;;4998435;28;20041;-82
2023/09/19 07:21:35;;;;;;;0.20;0.20;;;17.80;99.90;;;;;;5011023;28;20030;-87
2023/09/19 07:24:04;;;;;;;0.52;0.40;;;17.80;99.90;;;;;;5004785;28;20030;-83
2023/09/19 07:26:31;;;;;;;0.80;0.52;;;18.00;99.90;;;;;;5006445;28;20065;-83
2023/09/19 07:28:57;;;;;;;0.20;0.10;;;18.00;99.90;;;;;;5002517;28;20043;-81
2023/09/19 07:31:25;;;;;;;0.50;0.50;;;18.10;99.90;;;;;;5008611;28;20049;-82
2023/09/19 07:33:51;;;;;;;2.00;0.70;;;18.10;99.90;;;;;;5002145;28;20033;-82
2023/09/19 07:36:17;;;;;;;0.45;0.45;;;18.10;99.90;;;;;;5002783;28;20428;-83
2023/09/19 07:38:43;;;;;;;0.90;0.85;;;18.20;99.90;;;;;;4995720;28;20053;-83
2023/09/19 07:41:09;;;;;;;1.92;0.90;;;18.30;99.90;;;;;;5006920;28;20050;-85
2023/09/19 07:43:40;;;;;;;0.20;0.20;;;18.20;99.90;;;;;;5012304;28;20464;-86
2023/09/19 07:46:09;;;;;;;0.10;0.10;;;18.30;99.90;;;;;;5008881;28;20031;-89
2023/09/19 07:48:37;;;;;;;4.65;0.73;;;18.60;99.90;;;;;;5035494;28;20038;-88
2023/09/19 07:51:08;;;;;;;0.15;0.15;;;18.80;99.90;;;;;;5007371;28;20030;-87
2023/09/19 07:53:35;;;;;;;0.43;0.35;;;18.90;99.90;;;;;;5011122;28;20025;-84
2023/09/19 07:56:09;;;;;;;0.28;0.28;;;18.60;99.90;;;;;;5011566;28;20045;-88
2023/09/19 07:58:38;;;;;;;2.35;0.65;;;18.30;99.90;;;;;;5003595;28;20483;-86
2023/09/19 08:01:12;;;;;;;0.25;0.25;;;18.40;99.90;;;;;;4999360;28;20360;-88
2023/09/19 08:03:40;;;;;;;0.28;0.28;;;18.40;99.90;;;;;;5006950;28;20034;-84
2023/09/19 08:06:07;;;;;;;0.52;0.52;;;18.60;99.90;;;;;;5002602;28;20041;-84
2023/09/19 08:08:37;;;;;;;0.10;0.10;;;18.60;99.90;;;;;;5004989;28;20039;-86
2023/09/19 08:11:15;;;;;;;0.15;0.15;;;18.70;97.40;;;;;;5002017;28;20045;-87
2023/09/19 08:13:43;;;;;;;1.30;0.47;;;18.70;95.60;;;;;;4999226;28;20022;-87
2023/09/19 08:16:10;;;;;;;2.33;0.55;;;18.60;64.20;;;;;;5013085;28;20042;-86
2023/09/19 08:18:39;;;;;;;0.30;0.30;;;18.60;81.30;;;;;;5005066;28;20054;-82
2023/09/19 08:21:10;;;;;;;2.30;0.98;;;18.70;59.60;;;;;;5017322;28;20042;-85
2023/09/19 08:23:40;;;;;;;0.20;0.20;;;18.50;92.00;;;;;;5022137;28;20041;-86
2023/09/19 08:26:07;;;;;;;0.10;0.10;;;18.60;85.20;;;;;;5009488;28;20052;-85
2023/09/19 08:28:35;;;;;;;0.57;0.50;;;18.50;88.20;;;;;;5007196;28;20038;-86
2023/09/19 08:31:05;;;;;;;0.68;0.65;;;18.60;83.70;;;;;;5003197;28;20049;-86
2023/09/19 08:33:33;;;;;;;0.40;0.40;;;18.50;90.00;;;;;;5010652;28;20053;-87
2023/09/19 08:36:00;;;;;;;0.40;0.40;;;18.50;95.10;;;;;;5001143;28;20037;-86
2023/09/19 08:38:29;;;;;;;1.00;0.63;;;18.50;95.10;;;;;;5009212;28;20046;-86
2023/09/19 08:41:00;;;;;;;0.40;0.40;;;18.50;84.80;;;;;;5010592;28;20042;-86
2023/09/19 08:43:26;;;;;;;0.50;0.30;;;18.40;78.70;;;;;;4998496;28;20033;-84
2023/09/19 08:46:03;;;;;;;0.20;0.20;;;18.30;91.50;;;;;;5004931;28;20028;-85
2023/09/19 08:48:31;;;;;;;0.22;0.22;;;18.30;73.40;;;;;;5010018;28;20040;-85
2023/09/19 08:51:06;;;;;;;0.17;0.17;;;18.40;48.80;;;;;;5000163;28;20138;-87
2023/09/19 08:53:50;;;;;;;0.10;0.10;;;18.40;47.30;;;;;;4998645;28;20030;-83
2023/09/19 08:56:18;;;;;;;0.10;0.10;;;18.40;42.90;;;;;;4996915;28;20044;-83
2023/09/19 08:58:55;;;;;;;0.35;0.28;;;18.50;57.70;;;;;;5000533;28;20026;-85
2023/09/19 09:01:27;;;;;;;0.57;0.43;;;18.60;54.40;;;;;;4997327;28;20049;-84
2023/09/19 09:03:54;;;;;;;1.65;0.88;;;18.80;45.90;;;;;;5008246;28;20038;-82
2023/09/19 09:06:21;;;;;;;0.50;0.40;;;18.80;31.00;;;;;;5004738;28;20030;-82
2023/09/19 09:08:47;;;;;;;0.32;0.28;;;18.70;42.30;;;;;;5005633;28;20052;-82
2023/09/19 09:11:17;;;;;;;0.40;0.30;;;18.70;57.00;;;;;;5008727;28;20030;-83
2023/09/19 09:13:46;;;;;;;0.20;0.20;;;19.00;55.30;;;;;;4999071;28;20459;-82
2023/09/19 09:16:17;;;;;;;0.65;0.63;;;19.20;29.30;;;;;;4998177;28;20026;-84
2023/09/19 09:18:44;;;;;;;0.73;0.73;;;19.20;30.40;;;;;;4997231;28;20042;-87
2023/09/19 09:21:10;;;;;;;11.15;1.17;;;19.30;13.10;;;;;;5005816;28;20463;-85
2023/09/19 09:23:36;;;;;;;0.20;0.20;;;19.30;2.40;;;;;;5010449;28;20048;-85
2023/09/19 09:26:03;;;;;;;0.40;0.40;;;19.50;1.00;;;;;;4997852;28;20026;-88
2023/09/19 09:28:31;;;;;;;2.08;0.82;;;19.60;1.00;;;;;;4997434;28;20064;-86
2023/09/19 09:30:58;;;;;;;0.70;0.30;;;19.80;1.00;;;;;;5002863;28;20480;-88
2023/09/19 09:33:24;;;;;;;2.00;0.85;;;19.80;1.00;;;;;;5000201;28;20487;-87
2023/09/19 09:35:53;;;;;;;0.10;0.10;;;19.80;1.00;;;;;;4995731;28;20026;-84
2023/09/19 09:38:28;;;;;;;0.20;0.20;;;19.80;1.00;;;;;;5002162;28;20041;-86
2023/09/19 09:41:03;;;;;;;0.50;0.50;;;19.70;1.00;;;;;;5000382;28;20038;-87
2023/09/19 09:43:35;;;;;;;0.65;0.65;;;19.70;1.00;;;;;;5000537;28;20077;-86
2023/09/19 09:49:27;;;;;;;1.10;0.30;;;20.10;1.00;;;;;;5005341;28;20034;-85
2023/09/19 09:51:59;;;;;;;0.20;0.20;;;20.20;1.00;;;;;;4996487;28;20475;-87
2023/09/19 09:54:33;;;;;;;0.10;0.10;;;20.20;1.00;;;;;;4993617;28;20045;-85
2023/09/19 09:57:13;;;;;;;1.55;0.68;;;20.10;1.00;;;;;;4999833;28;20053;-86
2023/09/19 09:59:58;;;;;;;0.20;0.20;;;20.10;1.00;;;;;;4998398;28;20030;-87
2023/09/19 10:02:32;;;;;;;0.30;0.30;;;20.10;1.00;;;;;;5011405;28;20037;-88
2023/09/19 10:05:09;;;;;;;0.20;0.20;;;20.10;1.00;;;;;;5006788;28;20029;-86
2023/09/19 10:07:40;;;;;;;0.10;0.10;;;20.20;1.00;;;;;;5007563;28;20491;-87
2023/09/19 10:10:16;;;;;;;0.22;0.22;;;20.40;1.00;;;;;;4995634;28;20045;-88
2023/09/19 10:12:48;;;;;;;0.98;0.90;;;20.60;1.00;;;;;;5003662;28;20037;-87
2023/09/19 10:15:24;;;;;;;0.30;0.30;;;20.40;1.00;;;;;;5001002;28;20033;-84
2023/09/19 10:17:58;;;;;;;0.35;0.32;;;20.00;1.00;;;;;;4996546;28;20065;-84
2023/09/19 10:23:03;;;;;;;0.13;0.13;;;20.60;1.00;;;;;;4994725;28;20038;-80
2023/09/19 10:25:30;;;;;;;1.25;0.57;;;20.70;1.00;;;;;;4999793;28;20089;-87
2023/09/19 10:28:06;;;;;;;0.20;0.20;;;20.60;1.00;;;;;;4996958;28;20042;-86
2023/09/19 10:30:36;;;;;;;0.60;0.60;;;20.50;1.00;;;;;;5003449;28;20045;-85
2023/09/19 10:33:05;;;;;;;0.70;0.70;;;20.80;1.00;;;;;;4999119;28;20041;-85
2023/09/19 10:35:33;;;;;;;0.10;0.10;;;20.90;1.00;;;;;;5005756;28;20026;-84
2023/09/19 10:38:01;;;;;;;0.32;0.32;;;20.80;1.00;;;;;;4998766;28;20034;-87
2023/09/19 10:40:30;;;;;;;0.20;0.20;;;20.80;1.00;;;;;;5010646;28;20510;-85
2023/09/19 10:43:05;;;;;;;0.10;0.10;;;20.30;1.00;;;;;;5005161;28;20358;-86
2023/09/19 10:45:33;;;;;;;0.10;0.10;;;20.50;1.00;;;;;;5008269;28;20042;-85
2023/09/19 10:48:02;;;;;;;0.30;0.30;;;20.70;1.00;;;;;;5001962;28;20038;-84
2023/09/19 10:50:36;;;;;;;0.10;0.10;;;20.80;1.00;;;;;;5013649;28;20408;-85
2023/09/19 10:53:07;;;;;;;0.20;0.20;;;20.80;1.00;;;;;;5014154;28;20452;-84
2023/09/19 10:55:35;;;;;;;1.25;0.73;;;21.00;1.00;;;;;;5011596;28;20037;-81
2023/09/19 10:58:09;;;;;;;1.35;1.33;;;20.90;1.00;;;;;;5011423;28;20045;-82
2023/09/19 11:00:53;;;;;;;0.10;0.10;;;21.00;1.00;;;;;;4998257;28;20034;-84
2023/09/19 11:03:25;;;;;;;0.43;0.20;;;21.20;1.00;;;;;;4999535;28;20049;-84
2023/09/19 11:06:10;;;;;;;0.57;0.32;;;21.00;1.00;;;;;;5002672;28;20035;-82
2023/09/19 11:08:58;;;;;;;0.47;0.47;;;20.90;1.00;;;;;;4998278;28;20034;-83
2023/09/19 11:11:39;;;;;;;0.10;0.10;;;21.00;1.00;;;;;;5000913;28;20030;-84
2023/09/19 11:14:24;;;;;;;0.30;0.20;;;21.30;1.00;;;;;;5008841;28;20400;-84
2023/09/19 11:17:11;;;;;;;0.10;0.10;;;21.40;1.00;;;;;;4999434;28;20136;-84
2023/09/19 11:20:25;;;;;;;0.17;0.17;;;21.80;1.00;;;;;;4996642;28;20049;-85
2023/09/19 11:22:58;;;;;;;0.10;0.10;;;21.80;1.00;;;;;;5012085;28;20041;-83
2023/09/19 11:25:31;;;;;;;0.13;0.13;;;21.30;1.00;;;;;;4996245;28;20057;-84
2023/09/19 11:28:06;;;;;;;0.25;0.25;;;20.90;1.00;;;;;;4995869;28;20428;-84
2023/09/19 11:30:34;;;;;;;0.30;0.30;;;20.80;1.00;;;;;;4994031;28;20050;-84
2023/09/19 11:33:25;;;;;;;0.50;0.35;;;20.90;1.00;;;;;;5000845;28;20034;-83
2023/09/19 11:36:36;;;;;;;0.40;0.40;;;20.90;1.00;;;;;;5001995;28;20475;-84
2023/09/19 11:39:08;;;;;;;0.40;0.40;;;20.90;1.00;;;;;;4915573;29;20048;-83
2023/09/19 11:41:39;;;;;;;0.35;0.35;;;20.90;1.00;;;;;;4930900;29;20052;-82
2023/09/19 11:44:05;;;;;;;0.30;0.30;;;21.00;1.00;;;;;;4931466;29;20043;-84
2023/09/19 11:46:33;;;;;;;0.15;0.15;;;21.20;1.00;;;;;;4936199;29;20036;-85
2023/09/19 11:49:12;;;;;;;0.20;0.20;;;21.40;1.00;;;;;;4935278;29;20039;-84
2023/09/19 11:51:44;;;;;;;0.10;0.10;;;21.50;1.00;;;;;;4930637;29;20044;-82
2023/09/19 11:54:17;;;;;;;0.10;0.10;;;21.50;1.00;;;;;;4931473;29;20265;-83
2023/09/19 11:56:45;;;;;;;0.10;0.10;;;21.50;1.00;;;;;;4930255;29;20041;-85
2023/09/19 11:59:21;;;;;;;0.95;0.22;;;21.50;1.00;;;;;;4913271;29;20505;-85
2023/09/19 12:02:01;;;;;;;0.20;0.20;;;21.60;1.00;;;;;;4931616;29;20031;-83
2023/09/19 12:04:45;;;;;;;0.10;0.10;;;21.90;1.00;;;;;;4911675;29;20059;-84
2023/09/19 12:07:16;;;;;;;0.20;0.20;;;21.50;1.00;;;;;;4931009;29;20479;-83
2023/09/19 12:09:47;;;;;;;3.30;0.47;;;21.70;1.00;;;;;;4960470;28;20046;-85
2023/09/19 12:12:26;;;;;;;0.10;0.10;;;21.80;1.00;;;;;;5003737;28;20041;-80
2023/09/19 12:14:54;;;;;;;0.10;0.10;;;22.10;1.00;;;;;;5003078;28;20049;-85
2023/09/19 12:17:22;;;;;;;0.10;0.10;;;22.00;1.00;;;;;;5010399;28;20026;-85
2023/09/19 12:19:53;;;;;;;0.20;0.20;;;22.30;1.00;;;;;;5003944;28;20456;-85
2023/09/19 12:22:22;;;;;;;0.20;0.20;;;22.50;1.00;;;;;;5006686;28;20065;-81
2023/09/19 12:24:50;;;;;;;0.25;0.20;;;22.60;1.00;;;;;;5001083;28;20026;-83
2023/09/19 12:27:17;;;;;;;0.22;0.22;;;22.10;1.00;;;;;;4997479;28;20045;-84
2023/09/19 12:29:59;;;;;;;0.20;0.20;;;21.70;1.00;;;;;;5000720;28;20038;-83
2023/09/19 12:32:36;;;;;;;0.20;0.20;;;21.90;1.00;;;;;;4998520;28;20132;-82
2023/09/19 12:35:07;;;;;;;1.17;0.30;;;22.30;1.00;;;;;;4998796;28;20026;-82
2023/09/19 12:37:36;;;;;;;0.20;0.20;;;22.60;1.00;;;;;;5007513;28;20033;-81
2023/09/19 12:40:21;;;;;;;0.70;0.70;;;22.80;1.00;;;;;;5006561;28;20436;-81
2023/09/19 12:42:49;;;;;;;0.40;0.38;;;22.90;1.00;;;;;;5000540;28;20038;-83
2023/09/19 12:45:18;;;;;;;0.98;0.57;;;23.00;1.00;;;;;;5012621;28;20455;-83
2023/09/19 12:48:22;;;;;;;0.30;0.30;;;23.00;1.00;;;;;;5003032;28;20363;-85
2023/09/19 12:51:07;;;;;;;0.10;0.10;;;23.00;1.00;;;;;;5001636;28;20034;-84
2023/09/19 12:53:40;;;;;;;0.20;0.20;;;23.10;1.00;;;;;;4997888;28;20041;-85
2023/09/19 12:56:08;;;;;;;0.25;0.22;;;23.10;1.00;;;;;;5013422;28;20045;-83
2023/09/19 12:58:55;;;;;;;0.47;0.47;;;23.00;1.00;;;;;;4998268;28;20030;-81
2023/09/19 13:01:24;;;;;;;0.20;0.20;;;23.00;1.00;;;;;;5002293;28;20162;-84
2023/09/19 13:04:27;;;;;;;0.20;0.20;;;22.90;1.00;;;;;;5004769;28;20030;-86
2023/09/19 13:06:54;;;;;;;0.32;0.32;;;22.80;1.00;;;;;;4966021;28;20050;-86
2023/09/19 13:09:28;;;;;;;0.20;0.20;;;23.00;1.00;;;;;;5004108;28;20054;-83
2023/09/19 13:11:54;;;;;;;0.60;0.43;;;23.20;1.00;;;;;;5015955;28;20056;-83
2023/09/19 13:14:23;;;;;;;0.40;0.40;;;23.40;1.00;;;;;;5014738;28;20038;-84
2023/09/19 13:17:16;;;;;;;0.17;0.17;;;23.50;1.00;;;;;;5016603;28;20050;-84
2023/09/19 13:19:49;;;;;;;0.10;0.10;;;23.50;1.00;;;;;;5002898;28;20053;-84